createdAt,value
2019-03-28T00:01:14.242Z,91.00
2019-03-28T00:03:50.037Z,91.10
2019-03-28T00:06:25.882Z,91.00
2019-03-28T00:09:02.022Z,91.10
2019-03-28T00:11:38.823Z,90.70
2019-03-28T00:14:14.619Z,90.80
2019-03-28T00:16:50.429Z,91.80
2019-03-28T00:19:26.264Z,91.10
2019-03-28T00:22:02.136Z,91.00
2019-03-28T00:24:45.629Z,90.60
2019-03-28T00:27:21.435Z,90.80
2019-03-28T00:29:57.184Z,90.20
2019-03-28T00:32:33.135Z,90.70
2019-03-28T00:35:08.951Z,91.40
2019-03-28T00:37:44.759Z,91.40
2019-03-28T00:40:20.532Z,91.90
2019-03-28T00:42:56.391Z,91.80
2019-03-28T00:45:32.182Z,91.00
2019-03-28T00:48:08.195Z,90.80
2019-03-28T00:50:44.274Z,90.80
2019-03-28T00:53:20.108Z,91.20
2019-03-28T00:55:55.981Z,91.30
2019-03-28T00:58:31.868Z,91.20
2019-03-28T01:01:08.709Z,91.30
2019-03-28T01:03:44.662Z,92.00
2019-03-28T01:06:20.572Z,91.60
2019-03-28T01:08:56.450Z,92.00
2019-03-28T01:11:32.259Z,92.10
2019-03-28T01:14:08.309Z,91.90
2019-03-28T01:16:44.240Z,92.30
2019-03-28T01:19:20.232Z,92.10
2019-03-28T01:21:56.042Z,92.00
2019-03-28T01:24:33.144Z,92.20
2019-03-28T01:27:08.956Z,91.60
2019-03-28T01:29:44.766Z,91.20
2019-03-28T01:32:20.633Z,91.70
2019-03-28T01:34:56.422Z,90.70
2019-03-28T01:37:32.225Z,90.80
2019-03-28T01:40:08.160Z,90.50
2019-03-28T01:42:43.945Z,90.10
2019-03-28T01:45:19.745Z,90.80
2019-03-28T01:47:55.561Z,91.40
2019-03-28T01:50:31.437Z,91.50
2019-03-28T01:53:07.469Z,91.80
2019-03-28T01:55:43.393Z,91.00
2019-03-28T01:58:19.435Z,91.00
2019-03-28T02:00:55.385Z,91.00
2019-03-28T02:03:32.145Z,90.60
2019-03-28T02:06:08.128Z,90.60
2019-03-28T02:08:43.998Z,90.40
2019-03-28T02:11:19.872Z,91.10
2019-03-28T02:13:55.877Z,91.60
2019-03-28T02:16:31.775Z,91.40
2019-03-28T02:19:07.794Z,90.60
2019-03-28T02:21:43.585Z,90.40
2019-03-28T02:24:19.503Z,91.10
2019-03-28T02:26:55.348Z,91.60
2019-03-28T02:29:31.128Z,90.80
2019-03-28T02:32:07.030Z,90.60
2019-03-28T02:34:42.805Z,91.70
2019-03-28T02:37:18.603Z,90.70
2019-03-28T02:39:54.382Z,90.80
2019-03-28T02:42:30.230Z,91.60
2019-03-28T02:45:06.095Z,90.90
2019-03-28T02:47:41.981Z,90.90
2019-03-28T02:50:17.784Z,90.40
2019-03-28T02:52:53.617Z,90.80
2019-03-28T02:55:29.803Z,90.70
2019-03-28T02:58:05.861Z,91.10
2019-03-28T03:00:41.664Z,91.40
2019-03-28T03:03:17.771Z,91.60
2019-03-28T03:05:54.891Z,91.50
2019-03-28T03:08:30.680Z,91.50
2019-03-28T03:11:10.294Z,91.80
2019-03-28T03:13:46.084Z,92.20
2019-03-28T03:16:22.701Z,91.40
2019-03-28T03:18:59.757Z,91.70
2019-03-28T03:21:36.099Z,91.40
2019-03-28T03:24:12.261Z,91.10
2019-03-28T03:26:48.051Z,91.40
2019-03-28T03:29:23.878Z,91.80
2019-03-28T03:31:59.744Z,91.70
2019-03-28T03:34:35.565Z,92.00
2019-03-28T03:37:11.597Z,91.30
2019-03-28T03:39:47.679Z,90.90
2019-03-28T03:42:23.744Z,91.00
2019-03-28T03:44:59.630Z,90.80
2019-03-28T03:47:35.611Z,90.60
2019-03-28T03:50:12.980Z,91.00
2019-03-28T03:52:48.896Z,90.90
2019-03-28T03:55:24.738Z,90.70
2019-03-28T03:58:14.240Z,91.00
2019-03-28T04:00:38.048Z,91.80
2019-03-28T04:03:13.823Z,91.10
2019-03-28T04:05:49.904Z,91.80
2019-03-28T04:08:26.999Z,91.90
2019-03-28T04:11:03.073Z,92.00
2019-03-28T04:13:40.429Z,91.50
2019-03-28T04:16:16.376Z,91.60
2019-03-28T04:18:52.211Z,91.80
2019-03-28T04:21:27.998Z,91.70
2019-03-28T04:24:04.669Z,92.10
2019-03-28T04:26:40.520Z,92.00
2019-03-28T04:29:16.291Z,92.10
2019-03-28T04:31:52.368Z,92.10
2019-03-28T04:34:28.184Z,92.10
2019-03-28T04:37:03.958Z,92.00
2019-03-28T04:39:39.792Z,92.40
2019-03-28T04:42:15.613Z,92.60
2019-03-28T04:44:52.591Z,92.80
2019-03-28T04:47:28.385Z,92.70
2019-03-28T04:50:05.479Z,92.30
2019-03-28T04:52:41.276Z,92.60
2019-03-28T04:55:17.065Z,92.30
2019-03-28T04:58:10.431Z,92.30
2019-03-28T05:00:46.469Z,92.40
2019-03-28T05:03:23.480Z,92.10
2019-03-28T05:05:59.330Z,92.60
2019-03-28T05:08:35.111Z,92.30
2019-03-28T05:11:10.875Z,92.60
2019-03-28T05:13:46.715Z,92.60
2019-03-28T05:16:23.340Z,92.60
2019-03-28T05:18:59.199Z,93.00
2019-03-28T05:21:35.072Z,93.20
2019-03-28T05:24:10.931Z,92.90
2019-03-28T05:26:46.927Z,92.10
2019-03-28T05:29:30.093Z,93.00
2019-03-28T05:32:05.892Z,92.10
2019-03-28T05:34:41.837Z,92.70
2019-03-28T05:37:17.829Z,92.90
2019-03-28T05:39:57.784Z,92.60
2019-03-28T05:42:33.570Z,92.60
2019-03-28T05:45:09.514Z,92.70
2019-03-28T05:47:45.316Z,92.90
2019-03-28T05:50:21.270Z,93.30
2019-03-28T05:52:57.043Z,93.20
2019-03-28T05:55:32.885Z,93.20
2019-03-28T05:58:09.672Z,93.20
2019-03-28T06:00:45.716Z,92.90
2019-03-28T06:03:21.800Z,92.40
2019-03-28T06:05:57.625Z,92.70
2019-03-28T06:08:40.662Z,92.40
2019-03-28T06:11:16.468Z,92.60
2019-03-28T06:13:52.261Z,92.70
2019-03-28T06:16:28.126Z,93.20
2019-03-28T06:19:03.959Z,92.50
2019-03-28T06:21:39.946Z,92.60
2019-03-28T06:24:15.676Z,92.50
2019-03-28T06:26:51.567Z,92.50
2019-03-28T06:29:28.442Z,93.00
2019-03-28T06:32:04.275Z,93.00
2019-03-28T06:34:40.147Z,93.00
2019-03-28T06:37:15.955Z,93.20
2019-03-28T06:39:51.764Z,93.40
2019-03-28T06:42:27.614Z,93.40
2019-03-28T06:45:04.023Z,93.50
2019-03-28T06:47:39.991Z,92.70
2019-03-28T06:50:15.831Z,93.10
2019-03-28T06:52:51.628Z,93.50
2019-03-28T06:55:27.374Z,93.50
2019-03-28T06:58:03.730Z,92.30
2019-03-28T07:00:39.516Z,93.00
2019-03-28T07:03:15.398Z,93.10
2019-03-28T07:05:51.170Z,93.10
2019-03-28T07:08:26.980Z,92.50
2019-03-28T07:11:02.963Z,92.70
2019-03-28T07:13:39.734Z,93.10
2019-03-28T07:16:15.498Z,93.10
2019-03-28T07:18:51.601Z,92.90
2019-03-28T07:21:28.496Z,92.70
2019-03-28T07:24:04.376Z,92.10
2019-03-28T07:26:40.145Z,92.40
2019-03-28T07:29:16.010Z,92.30
2019-03-28T07:31:51.833Z,92.50
2019-03-28T07:34:27.734Z,91.80
2019-03-28T07:37:03.511Z,91.90
2019-03-28T07:39:39.455Z,91.70
2019-03-28T07:42:15.574Z,92.20
2019-03-28T07:44:51.461Z,92.70
2019-03-28T07:47:30.247Z,92.40
2019-03-28T07:50:06.236Z,92.20
2019-03-28T07:52:42.112Z,92.90
2019-03-28T07:55:18.178Z,91.90
2019-03-28T07:57:54.288Z,92.10
2019-03-28T08:00:30.304Z,92.10
2019-03-28T08:03:06.105Z,92.20
2019-03-28T08:05:42.910Z,91.50
2019-03-28T08:08:18.812Z,90.80
2019-03-28T08:10:54.700Z,90.60
2019-03-28T08:13:30.595Z,90.90
2019-03-28T08:16:06.544Z,90.70
2019-03-28T08:18:42.424Z,91.00
2019-03-28T08:21:18.244Z,90.30
2019-03-28T08:23:54.046Z,89.70
2019-03-28T08:26:30.408Z,90.20
2019-03-28T08:29:06.253Z,89.70
2019-03-28T08:31:44.134Z,89.40
2019-03-28T08:34:19.980Z,88.30
2019-03-28T08:36:55.792Z,87.60
2019-03-28T08:39:31.574Z,88.10
2019-03-28T08:42:07.710Z,86.00
2019-03-28T08:44:43.620Z,87.50
2019-03-28T08:47:19.460Z,86.00
2019-03-28T08:49:58.561Z,87.30
2019-03-28T08:52:32.711Z,87.00
2019-03-28T08:55:10.141Z,86.00
2019-03-28T08:57:46.236Z,85.60
2019-03-28T09:00:32.241Z,86.70
2019-03-28T09:02:59.489Z,85.40
2019-03-28T09:05:35.309Z,86.70
2019-03-28T09:08:11.288Z,85.40
2019-03-28T09:10:47.080Z,85.60
2019-03-28T09:13:23.031Z,86.10
2019-03-28T09:15:58.801Z,83.60
2019-03-28T09:18:34.661Z,83.90
2019-03-28T09:21:10.699Z,84.50
2019-03-28T09:23:46.493Z,84.50
2019-03-28T09:26:22.277Z,84.50
2019-03-28T09:28:58.126Z,83.00
2019-03-28T09:31:33.924Z,82.10
2019-03-28T09:34:09.758Z,83.90
2019-03-28T09:36:45.583Z,82.30
2019-03-28T09:39:24.648Z,83.80
2019-03-28T09:41:58.860Z,83.40
2019-03-28T09:44:34.757Z,82.60
2019-03-28T09:47:13.350Z,84.10
2019-03-28T09:49:49.224Z,81.90
2019-03-28T09:52:24.980Z,82.10
2019-03-28T09:55:00.853Z,80.70
2019-03-28T09:57:36.684Z,80.00
2019-03-28T10:00:13.078Z,80.60
2019-03-28T10:02:48.992Z,79.00
2019-03-28T10:05:24.784Z,78.30
2019-03-28T10:08:00.677Z,78.90
2019-03-28T10:10:36.524Z,79.00
2019-03-28T10:13:12.309Z,76.10
2019-03-28T10:15:48.227Z,77.90
2019-03-28T10:18:24.006Z,76.00
2019-03-28T10:20:59.880Z,74.20
2019-03-28T10:23:35.680Z,73.70
2019-03-28T10:26:11.528Z,74.50
2019-03-28T10:28:47.458Z,71.80
2019-03-28T10:31:23.357Z,71.00
2019-03-28T10:33:59.489Z,72.20
2019-03-28T10:36:35.341Z,71.10
2019-03-28T10:39:11.311Z,71.20
2019-03-28T10:41:47.135Z,71.30
2019-03-28T10:44:22.929Z,70.90
2019-03-28T10:46:58.769Z,71.90
2019-03-28T10:49:34.632Z,70.60
2019-03-28T10:52:12.059Z,69.80
2019-03-28T10:54:48.033Z,69.40
2019-03-28T10:57:29.794Z,67.60
2019-03-28T11:00:01.312Z,68.90
2019-03-28T11:02:38.786Z,69.40
2019-03-28T11:05:14.959Z,68.00
2019-03-28T11:07:52.389Z,67.10
2019-03-28T11:10:30.557Z,68.30
2019-03-28T11:13:09.030Z,66.20
2019-03-28T11:15:43.272Z,64.20
2019-03-28T11:18:19.184Z,63.20
2019-03-28T11:20:55.086Z,64.40
2019-03-28T11:23:30.940Z,65.70
2019-03-28T11:26:06.806Z,66.90
2019-03-28T11:28:42.610Z,63.70
2019-03-28T11:31:18.439Z,62.00
2019-03-28T11:33:54.207Z,61.10
2019-03-28T11:36:30.093Z,60.40
2019-03-28T11:39:07.710Z,62.10
2019-03-28T11:41:43.606Z,62.40
2019-03-28T11:44:19.583Z,62.90
2019-03-28T11:46:55.732Z,63.00
2019-03-28T11:49:31.614Z,64.30
2019-03-28T11:52:07.554Z,63.10
2019-03-28T11:54:44.390Z,62.20
2019-03-28T11:57:20.277Z,61.50
2019-03-28T11:59:57.997Z,62.10
2019-03-28T12:02:33.590Z,60.80
2019-03-28T12:05:09.525Z,61.80
2019-03-28T12:07:45.339Z,60.80
2019-03-28T12:10:21.181Z,59.10
2019-03-28T12:12:57.027Z,60.10
2019-03-28T12:15:33.138Z,60.00
2019-03-28T12:18:09.053Z,58.10
2019-03-28T12:20:45.692Z,60.00
2019-03-28T12:23:22.386Z,59.00
2019-03-28T12:25:59.548Z,58.00
2019-03-28T12:28:35.394Z,60.10
2019-03-28T12:31:11.483Z,57.50
2019-03-28T12:33:47.315Z,59.70
2019-03-28T12:36:23.361Z,59.10
2019-03-28T12:38:59.289Z,59.10
2019-03-28T12:41:36.211Z,57.30
2019-03-28T12:44:11.991Z,56.60
2019-03-28T12:46:47.800Z,57.30
2019-03-28T12:49:24.564Z,58.10
2019-03-28T12:52:00.370Z,57.70
2019-03-28T12:54:36.172Z,59.30
2019-03-28T12:57:14.407Z,59.50
2019-03-28T12:59:49.488Z,60.80
2019-03-28T13:02:31.448Z,59.40
2019-03-28T13:05:02.876Z,56.70
2019-03-28T13:07:38.900Z,58.50
2019-03-28T13:10:14.820Z,58.10
2019-03-28T13:12:50.632Z,58.20
2019-03-28T13:15:26.452Z,57.40
2019-03-28T13:18:02.322Z,57.20
2019-03-28T13:20:38.112Z,54.90
2019-03-28T13:23:13.918Z,58.10
2019-03-28T13:25:49.691Z,56.20
2019-03-28T13:28:25.771Z,55.30
2019-03-28T13:31:01.616Z,56.20
2019-03-28T13:33:37.505Z,55.00
2019-03-28T13:36:13.502Z,55.40
2019-03-28T13:38:49.321Z,56.50
2019-03-28T13:41:25.047Z,56.10
2019-03-28T13:44:01.679Z,54.90
2019-03-28T13:46:37.506Z,56.40
2019-03-28T13:49:13.246Z,56.40
2019-03-28T13:51:48.939Z,55.50
2019-03-28T13:54:24.696Z,55.80
2019-03-28T13:57:00.694Z,56.30
2019-03-28T13:59:37.686Z,56.10
2019-03-28T14:02:13.405Z,57.80
2019-03-28T14:04:49.291Z,56.20
2019-03-28T14:07:25.215Z,56.50
2019-03-28T14:10:01.349Z,56.70
2019-03-28T14:12:37.105Z,57.10
2019-03-28T14:15:12.874Z,56.50
2019-03-28T14:17:48.588Z,57.80
2019-03-28T14:20:24.514Z,57.30
2019-03-28T14:23:00.242Z,59.60
2019-03-28T14:25:35.995Z,58.30
2019-03-28T14:28:11.713Z,56.90
2019-03-28T14:30:47.716Z,57.70
2019-03-28T14:33:23.443Z,57.00
2019-03-28T14:35:59.138Z,58.80
2019-03-28T14:38:37.348Z,56.90
2019-03-28T14:41:12.248Z,57.10
2019-03-28T14:43:48.121Z,58.00
2019-03-28T14:46:23.989Z,56.70
2019-03-28T14:49:00.050Z,57.10
2019-03-28T14:51:35.930Z,58.40
2019-03-28T14:54:11.595Z,58.90
2019-03-28T14:56:47.359Z,59.90
2019-03-28T14:59:32.497Z,58.10
2019-03-28T15:02:00.538Z,57.80
2019-03-28T15:04:36.275Z,59.10
2019-03-28T15:07:12.968Z,56.70
2019-03-28T15:09:48.708Z,58.40
2019-03-28T15:12:24.616Z,57.10
2019-03-28T15:15:00.527Z,58.20
2019-03-28T15:17:36.364Z,58.80
2019-03-28T15:20:12.019Z,59.30
2019-03-28T15:22:47.830Z,60.00
2019-03-28T15:25:23.509Z,60.30
2019-03-28T15:27:59.269Z,59.40
2019-03-28T15:30:34.910Z,60.10
2019-03-28T15:33:10.721Z,60.10
2019-03-28T15:35:46.362Z,59.90
2019-03-28T15:38:22.042Z,59.90
2019-03-28T15:40:57.728Z,59.60
2019-03-28T15:43:33.471Z,61.80
2019-03-28T15:46:10.409Z,60.50
2019-03-28T15:48:46.424Z,60.30
2019-03-28T15:51:23.078Z,59.30
2019-03-28T15:53:59.056Z,62.60
2019-03-28T15:56:34.799Z,61.80
2019-03-28T15:59:10.563Z,62.50
2019-03-28T16:01:46.323Z,62.50
2019-03-28T16:04:24.669Z,61.40
2019-03-28T16:06:59.532Z,62.20
2019-03-28T16:09:35.667Z,62.70
2019-03-28T16:12:11.412Z,65.40
2019-03-28T16:14:47.163Z,63.80
2019-03-28T16:17:22.932Z,64.50
2019-03-28T16:19:58.701Z,64.00
2019-03-28T16:22:34.454Z,63.30
2019-03-28T16:25:10.279Z,65.90
2019-03-28T16:27:46.015Z,64.30
2019-03-28T16:30:33.635Z,65.10
2019-03-28T16:33:10.556Z,64.60
2019-03-28T16:35:46.467Z,65.10
2019-03-28T16:38:22.207Z,64.10
2019-03-28T16:40:58.118Z,65.50
2019-03-28T16:43:34.239Z,65.00
2019-03-28T16:46:10.191Z,65.30
2019-03-28T16:48:46.003Z,65.60
2019-03-28T16:51:21.855Z,65.50
2019-03-28T16:53:57.600Z,65.60
2019-03-28T16:56:33.493Z,67.80
2019-03-28T16:59:09.228Z,67.50
2019-03-28T17:01:45.434Z,66.70
2019-03-28T17:04:22.199Z,69.80
2019-03-28T17:06:59.636Z,70.50
2019-03-28T17:09:37.592Z,71.50
2019-03-28T17:12:13.352Z,71.10
2019-03-28T17:14:49.168Z,71.40
2019-03-28T17:17:25.124Z,70.30
2019-03-28T17:20:00.841Z,70.30
2019-03-28T17:22:36.562Z,71.80
2019-03-28T17:25:12.296Z,73.10
2019-03-28T17:27:49.040Z,71.40
2019-03-28T17:30:24.794Z,72.70
2019-03-28T17:33:00.775Z,72.00
2019-03-28T17:35:36.722Z,74.70
2019-03-28T17:38:12.473Z,79.10
2019-03-28T17:40:48.178Z,79.30
2019-03-28T17:43:23.979Z,78.20
2019-03-28T17:45:59.923Z,78.80
2019-03-28T17:48:36.846Z,76.90
2019-03-28T17:51:12.561Z,81.30
2019-03-28T17:53:48.353Z,84.40
2019-03-28T17:56:24.424Z,82.50
2019-03-28T17:59:00.459Z,81.80
2019-03-28T18:01:37.870Z,79.50
2019-03-28T18:04:22.767Z,79.80
2019-03-28T18:06:51.229Z,80.50
2019-03-28T18:09:27.243Z,79.20
2019-03-28T18:12:04.001Z,79.40
2019-03-28T18:14:41.554Z,81.50
2019-03-28T18:17:22.481Z,81.80
2019-03-28T18:19:58.367Z,83.70
2019-03-28T18:22:36.396Z,84.40
2019-03-28T18:25:13.708Z,84.30
2019-03-28T18:27:49.467Z,84.30
2019-03-28T18:30:25.195Z,85.50
2019-03-28T18:33:03.854Z,85.40
2019-03-28T18:35:38.399Z,85.30
2019-03-28T18:38:14.055Z,85.20
2019-03-28T18:40:49.946Z,85.60
2019-03-28T18:43:27.816Z,86.80
2019-03-28T18:46:03.609Z,86.50
2019-03-28T18:48:39.293Z,87.30
2019-03-28T18:51:15.014Z,87.60
2019-03-28T18:53:50.838Z,87.40
2019-03-28T18:56:26.569Z,87.50
2019-03-28T18:59:02.318Z,88.10
2019-03-28T19:01:38.000Z,88.00
2019-03-28T19:04:14.060Z,88.10
2019-03-28T19:06:50.116Z,88.80
2019-03-28T19:09:25.747Z,90.00
2019-03-28T19:12:01.542Z,88.90
2019-03-28T19:14:37.620Z,90.20
2019-03-28T19:17:13.415Z,90.20
2019-03-28T19:19:49.179Z,90.00
2019-03-28T19:22:24.961Z,90.30
2019-03-28T19:25:00.695Z,89.90
2019-03-28T19:27:38.151Z,89.40
2019-03-28T19:30:14.085Z,90.20
2019-03-28T19:32:49.911Z,90.60
2019-03-28T19:35:32.906Z,90.10
2019-03-28T19:38:03.212Z,90.60
2019-03-28T19:40:39.001Z,89.90
2019-03-28T19:43:20.927Z,90.20
2019-03-28T19:45:52.315Z,89.70
2019-03-28T19:48:31.146Z,90.10
2019-03-28T19:51:07.853Z,90.50
2019-03-28T19:53:44.001Z,90.10
2019-03-28T19:56:20.863Z,90.20
2019-03-28T19:58:57.493Z,90.10
2019-03-28T20:01:33.243Z,90.30
2019-03-28T20:04:08.919Z,90.60
2019-03-28T20:06:44.650Z,90.90
2019-03-28T20:09:20.416Z,90.60
2019-03-28T20:11:59.302Z,90.80
2019-03-28T20:14:33.621Z,90.80
2019-03-28T20:17:09.381Z,90.80
2019-03-28T20:19:45.258Z,90.50
2019-03-28T20:22:21.002Z,90.70
2019-03-28T20:24:58.287Z,90.90
2019-03-28T20:27:34.358Z,91.40
2019-03-28T20:30:10.185Z,91.00
2019-03-28T20:32:45.949Z,90.90
2019-03-28T20:35:22.181Z,91.30
2019-03-28T20:37:57.855Z,91.00
2019-03-28T20:40:33.721Z,90.90
2019-03-28T20:43:09.693Z,91.10
2019-03-28T20:45:46.403Z,91.30
2019-03-28T20:48:22.257Z,91.10
2019-03-28T20:50:58.080Z,91.10
2019-03-28T20:53:33.779Z,91.10
2019-03-28T20:56:09.512Z,90.90
2019-03-28T20:58:45.263Z,91.20
2019-03-28T21:01:21.002Z,91.20
2019-03-28T21:03:56.607Z,91.30
2019-03-28T21:06:32.369Z,91.40
2019-03-28T21:09:08.486Z,91.60
2019-03-28T21:11:44.510Z,91.40
2019-03-28T21:14:20.213Z,91.40
2019-03-28T21:16:58.122Z,91.30
2019-03-28T21:19:33.458Z,91.50
2019-03-28T21:22:09.086Z,91.60
2019-03-28T21:24:44.882Z,91.80
2019-03-28T21:27:20.961Z,91.60
2019-03-28T21:29:56.742Z,91.50
2019-03-28T21:32:32.586Z,91.60
2019-03-28T21:35:08.313Z,91.50
2019-03-28T21:37:44.306Z,91.60
2019-03-28T21:40:20.100Z,91.80
2019-03-28T21:42:55.835Z,91.70
2019-03-28T21:45:31.638Z,91.80
2019-03-28T21:48:07.373Z,91.90
2019-03-28T21:50:43.157Z,92.30
2019-03-28T21:53:20.089Z,92.00
2019-03-28T21:55:57.495Z,91.80
2019-03-28T21:58:33.647Z,92.10
2019-03-28T22:01:09.311Z,91.90
2019-03-28T22:03:45.759Z,92.10
2019-03-28T22:06:21.501Z,92.00
2019-03-28T22:08:57.319Z,92.40
2019-03-28T22:11:33.038Z,92.00
2019-03-28T22:14:08.777Z,92.00
2019-03-28T22:16:44.667Z,92.00
2019-03-28T22:19:20.811Z,92.10
2019-03-28T22:21:57.054Z,92.10
2019-03-28T22:24:32.855Z,92.20
2019-03-28T22:27:08.727Z,92.30
2019-03-28T22:29:44.882Z,92.30
2019-03-28T22:32:20.530Z,92.40
2019-03-28T22:34:56.461Z,92.40
2019-03-28T22:37:32.264Z,92.20
2019-03-28T22:40:11.475Z,92.40
2019-03-28T22:42:45.500Z,92.40
2019-03-28T22:45:23.137Z,92.60
2019-03-28T22:48:10.040Z,92.40
2019-03-28T22:50:36.366Z,92.40
2019-03-28T22:53:12.094Z,92.60
2019-03-28T22:55:47.859Z,92.70
2019-03-28T22:58:23.894Z,92.80
2019-03-28T23:00:59.878Z,92.80
2019-03-28T23:03:35.706Z,92.80
2019-03-28T23:06:11.524Z,93.00
2019-03-28T23:08:47.316Z,93.10
2019-03-28T23:11:23.083Z,93.40
2019-03-28T23:13:58.738Z,93.20
2019-03-28T23:16:34.633Z,93.20
2019-03-28T23:19:11.985Z,93.40
2019-03-28T23:21:47.960Z,93.50
2019-03-28T23:24:23.731Z,93.50
2019-03-28T23:27:00.856Z,93.50
2019-03-28T23:29:36.856Z,93.60
2019-03-28T23:32:12.970Z,93.70
2019-03-28T23:34:49.083Z,93.70
2019-03-28T23:37:26.127Z,93.90
2019-03-28T23:40:03.153Z,93.90
2019-03-28T23:42:39.507Z,94.00
2019-03-28T23:45:15.232Z,94.10
2019-03-28T23:47:51.005Z,93.90
2019-03-28T23:50:26.734Z,94.00
2019-03-28T23:53:02.454Z,94.40
2019-03-28T23:55:38.191Z,94.60
2019-03-28T23:58:13.840Z,94.50
